sensor_id;sensor_type;location;lat;lon;timestamp;temperature;humidity
1888;DHT22;944;51.574;6.980;2023-05-18T00:01:21;7.90;99.90
1888;DHT22;944;51.574;6.980;2023-05-18T01:16:40;7.10;99.90
1888;DHT22;944;51.574;6.980;2023-05-18T04:39:56;6.40;99.90
1888;DHT22;944;51.574;6.980;2023-05-18T04:47:19;6.40;99.90
1888;DHT22;944;51.574;6.980;2023-05-18T06:16:42;10.90;99.90
1888;DHT22;944;51.574;6.980;2023-05-18T06:45:44;11.70;99.90
1888;DHT22;944;51.574;6.980;2023-05-18T06:49:42;11.60;99.90
1888;DHT22;944;51.574;6.980;2023-05-18T07:06:33;12.70;99.90
1888;DHT22;944;51.574;6.980;2023-05-18T07:09:18;12.30;99.90
1888;DHT22;944;51.574;6.980;2023-05-18T07:11:58;12.20;99.90
1888;DHT22;944;51.574;6.980;2023-05-18T07:14:48;12.40;99.90
1888;DHT22;944;51.574;6.980;2023-05-18T07:17:25;12.40;99.90
1888;DHT22;944;51.574;6.980;2023-05-18T07:24:06;12.60;99.90
1888;DHT22;944;51.574;6.980;2023-05-18T07:26:47;13.00;99.90
1888;DHT22;944;51.574;6.980;2023-05-18T07:29:43;13.00;99.90
1888;DHT22;944;51.574;6.980;2023-05-18T07:32:12;13.20;99.90
1888;DHT22;944;51.574;6.980;2023-05-18T07:34:47;13.40;99.90
1888;DHT22;944;51.574;6.980;2023-05-18T08:06:03;13.30;99.90
1888;DHT22;944;51.574;6.980;2023-05-18T08:08:34;13.70;99.90
1888;DHT22;944;51.574;6.980;2023-05-18T08:18:09;14.30;99.90
1888;DHT22;944;51.574;6.980;2023-05-18T08:21:11;14.20;99.90
1888;DHT22;944;51.574;6.980;2023-05-18T08:27:30;14.60;99.90
1888;DHT22;944;51.574;6.980;2023-05-18T08:30:04;14.70;99.90
1888;DHT22;944;51.574;6.980;2023-05-18T08:33:04;14.90;99.90
1888;DHT22;944;51.574;6.980;2023-05-18T08:36:09;15.30;99.90
1888;DHT22;944;51.574;6.980;2023-05-18T08:38:47;15.20;99.90
1888;DHT22;944;51.574;6.980;2023-05-18T08:45:23;15.50;99.90
1888;DHT22;944;51.574;6.980;2023-05-18T08:48:01;15.50;99.90
1888;DHT22;944;51.574;6.980;2023-05-18T08:50:42;15.20;99.90
1888;DHT22;944;51.574;6.980;2023-05-18T08:53:19;15.10;99.90
1888;DHT22;944;51.574;6.980;2023-05-18T08:55:57;15.30;99.90
1888;DHT22;944;51.574;6.980;2023-05-18T08:58:34;15.50;99.90
1888;DHT22;944;51.574;6.980;2023-05-18T09:01:03;15.70;99.90
1888;DHT22;944;51.574;6.980;2023-05-18T09:03:32;15.50;99.90
1888;DHT22;944;51.574;6.980;2023-05-18T09:06:13;15.40;99.90
1888;DHT22;944;51.574;6.980;2023-05-18T09:09:00;15.50;99.90
1888;DHT22;944;51.574;6.980;2023-05-18T09:11:43;15.30;99.90
1888;DHT22;944;51.574;6.980;2023-05-18T09:14:18;14.80;99.90
1888;DHT22;944;51.574;6.980;2023-05-18T09:20:33;15.50;99.90
1888;DHT22;944;51.574;6.980;2023-05-18T09:23:00;16.10;99.90
1888;DHT22;944;51.574;6.980;2023-05-18T09:25:45;16.40;99.90
1888;DHT22;944;51.574;6.980;2023-05-18T09:28:25;16.00;99.90
1888;DHT22;944;51.574;6.980;2023-05-18T09:31:05;15.80;99.90
1888;DHT22;944;51.574;6.980;2023-05-18T09:33:46;15.70;99.90
1888;DHT22;944;51.574;6.980;2023-05-18T09:36:24;15.80;99.90
1888;DHT22;944;51.574;6.980;2023-05-18T09:38:53;15.10;99.90
1888;DHT22;944;51.574;6.980;2023-05-18T09:44:53;14.90;99.90
1888;DHT22;944;51.574;6.980;2023-05-18T09:47:21;15.10;99.90
1888;DHT22;944;51.574;6.980;2023-05-18T09:53:30;14.40;99.90
1888;DHT22;944;51.574;6.980;2023-05-18T09:56:27;14.60;99.90
1888;DHT22;944;51.574;6.980;2023-05-18T10:10:44;14.20;99.90
1888;DHT22;944;51.574;6.980;2023-05-18T10:28:42;14.50;99.90
1888;DHT22;944;51.574;6.980;2023-05-18T10:31:51;14.30;99.90
1888;DHT22;944;51.574;6.980;2023-05-18T10:34:42;14.50;99.90
1888;DHT22;944;51.574;6.980;2023-05-18T10:38:20;14.60;99.90
1888;DHT22;944;51.574;6.980;2023-05-18T10:48:28;14.50;99.90
1888;DHT22;944;51.574;6.980;2023-05-18T10:51:21;14.40;99.90
1888;DHT22;944;51.574;6.980;2023-05-18T10:54:10;14.60;99.90
1888;DHT22;944;51.574;6.980;2023-05-18T10:56:59;14.50;99.90
1888;DHT22;944;51.574;6.980;2023-05-18T11:03:22;14.80;99.90
1888;DHT22;944;51.574;6.980;2023-05-18T11:06:08;14.90;99.90
1888;DHT22;944;51.574;6.980;2023-05-18T11:09:00;14.90;99.90
1888;DHT22;944;51.574;6.980;2023-05-18T11:11:51;14.90;99.90
1888;DHT22;944;51.574;6.980;2023-05-18T11:14:47;14.80;99.90
1888;DHT22;944;51.574;6.980;2023-05-18T11:24:41;14.60;99.90
1888;DHT22;944;51.574;6.980;2023-05-18T11:27:22;14.50;99.90
1888;DHT22;944;51.574;6.980;2023-05-18T11:32:19;14.40;99.90
1888;DHT22;944;51.574;6.980;2023-05-18T11:33:55;14.60;99.90
1888;DHT22;944;51.574;6.980;2023-05-18T11:40:45;14.90;99.90
1888;DHT22;944;51.574;6.980;2023-05-18T11:43:20;14.90;99.90
1888;DHT22;944;51.574;6.980;2023-05-18T11:45:52;14.70;99.90
1888;DHT22;944;51.574;6.980;2023-05-18T11:48:22;14.80;99.90
1888;DHT22;944;51.574;6.980;2023-05-18T11:51:11;14.90;99.90
1888;DHT22;944;51.574;6.980;2023-05-18T11:53:39;15.00;99.90
1888;DHT22;944;51.574;6.980;2023-05-18T11:56:09;15.20;99.90
1888;DHT22;944;51.574;6.980;2023-05-18T11:58:37;15.10;99.90
1888;DHT22;944;51.574;6.980;2023-05-18T12:01:04;15.20;99.90
1888;DHT22;944;51.574;6.980;2023-05-18T12:03:38;15.20;99.90
1888;DHT22;944;51.574;6.980;2023-05-18T12:06:18;15.00;99.90
1888;DHT22;944;51.574;6.980;2023-05-18T12:08:58;15.20;99.90
1888;DHT22;944;51.574;6.980;2023-05-18T12:11:25;15.00;99.90
1888;DHT22;944;51.574;6.980;2023-05-18T12:13:53;15.10;99.90
1888;DHT22;944;51.574;6.980;2023-05-18T12:16:20;15.20;99.90
1888;DHT22;944;51.574;6.980;2023-05-18T12:18:48;15.10;99.90
1888;DHT22;944;51.574;6.980;2023-05-18T12:21:21;15.10;99.90
1888;DHT22;944;51.574;6.980;2023-05-18T12:23:56;15.20;99.90
1888;DHT22;944;51.574;6.980;2023-05-18T12:26:25;15.30;99.90
1888;DHT22;944;51.574;6.980;2023-05-18T12:28:53;15.50;99.90
1888;DHT22;944;51.574;6.980;2023-05-18T12:31:20;15.10;99.90
1888;DHT22;944;51.574;6.980;2023-05-18T12:33:48;15.30;99.90
1888;DHT22;944;51.574;6.980;2023-05-18T12:36:16;15.30;99.90
1888;DHT22;944;51.574;6.980;2023-05-18T12:38:47;15.40;99.90
1888;DHT22;944;51.574;6.980;2023-05-18T12:41:21;15.50;99.90
1888;DHT22;944;51.574;6.980;2023-05-18T12:55:14;15.60;99.90
1888;DHT22;944;51.574;6.980;2023-05-18T12:58:02;15.10;99.90
1888;DHT22;944;51.574;6.980;2023-05-18T13:04:34;15.20;99.90
1888;DHT22;944;51.574;6.980;2023-05-18T13:07:02;15.20;99.90
1888;DHT22;944;51.574;6.980;2023-05-18T13:09:29;15.30;99.90
1888;DHT22;944;51.574;6.980;2023-05-18T13:12:04;15.40;99.90
1888;DHT22;944;51.574;6.980;2023-05-18T13:14:36;15.50;99.90
1888;DHT22;944;51.574;6.980;2023-05-18T13:17:04;15.50;99.90
1888;DHT22;944;51.574;6.980;2023-05-18T13:19:33;15.20;99.90
1888;DHT22;944;51.574;6.980;2023-05-18T13:22:01;15.10;99.90
1888;DHT22;944;51.574;6.980;2023-05-18T13:24:31;15.20;99.90
1888;DHT22;944;51.574;6.980;2023-05-18T13:27:00;15.40;99.90
1888;DHT22;944;51.574;6.980;2023-05-18T13:33:16;15.20;99.90
1888;DHT22;944;51.574;6.980;2023-05-18T13:35:46;15.40;99.90
1888;DHT22;944;51.574;6.980;2023-05-18T13:38:17;15.60;99.90
1888;DHT22;944;51.574;6.980;2023-05-18T13:40:44;15.60;99.90
1888;DHT22;944;51.574;6.980;2023-05-18T13:43:11;15.70;99.90
1888;DHT22;944;51.574;6.980;2023-05-18T13:48:50;15.60;99.90
1888;DHT22;944;51.574;6.980;2023-05-18T13:51:23;15.70;99.90
1888;DHT22;944;51.574;6.980;2023-05-18T13:54:03;15.60;99.90
1888;DHT22;944;51.574;6.980;2023-05-18T13:56:54;15.60;99.90
1888;DHT22;944;51.574;6.980;2023-05-18T13:59:38;15.50;99.90
1888;DHT22;944;51.574;6.980;2023-05-18T14:20:39;15.80;99.90
1888;DHT22;944;51.574;6.980;2023-05-18T14:35:02;15.80;99.90
1888;DHT22;944;51.574;6.980;2023-05-18T14:41:50;15.70;99.90
1888;DHT22;944;51.574;6.980;2023-05-18T14:44:43;15.90;99.90
1888;DHT22;944;51.574;6.980;2023-05-18T14:50:06;15.80;99.90
1888;DHT22;944;51.574;6.980;2023-05-18T14:51:31;15.30;99.90
1888;DHT22;944;51.574;6.980;2023-05-18T14:55:53;15.40;99.90
1888;DHT22;944;51.574;6.980;2023-05-18T14:58:25;15.60;99.90
1888;DHT22;944;51.574;6.980;2023-05-18T15:09:40;16.20;99.90
1888;DHT22;944;51.574;6.980;2023-05-18T18:01:20;15.10;99.90
1888;DHT22;944;51.574;6.980;2023-05-18T18:27:31;14.70;99.90
1888;DHT22;944;51.574;6.980;2023-05-18T18:36:00;14.60;99.90
1888;DHT22;944;51.574;6.980;2023-05-18T20:19:58;12.80;99.90
1888;DHT22;944;51.574;6.980;2023-05-18T20:46:53;12.40;99.90
1888;DHT22;944;51.574;6.980;2023-05-18T22:43:10;11.00;99.90
1888;DHT22;944;51.574;6.980;2023-05-18T23:19:18;10.70;99.90
1888;DHT22;944;51.574;6.980;2023-05-18T23:21:45;10.70;99.90
1888;DHT22;944;51.574;6.980;2023-05-18T23:24:13;10.70;99.90
1888;DHT22;944;51.574;6.980;2023-05-18T23:26:41;10.70;99.90
1888;DHT22;944;51.574;6.980;2023-05-18T23:29:09;10.50;99.90
1888;DHT22;944;51.574;6.980;2023-05-18T23:31:36;10.80;99.90
1888;DHT22;944;51.574;6.980;2023-05-18T23:34:04;10.70;99.90
1888;DHT22;944;51.574;6.980;2023-05-18T23:36:33;10.70;99.90
1888;DHT22;944;51.574;6.980;2023-05-18T23:39:00;10.60;99.90
1888;DHT22;944;51.574;6.980;2023-05-18T23:41:29;10.50;99.90
1888;DHT22;944;51.574;6.980;2023-05-18T23:43:57;10.50;99.90
1888;DHT22;944;51.574;6.980;2023-05-18T23:46:25;10.50;99.90
1888;DHT22;944;51.574;6.980;2023-05-18T23:48:53;10.50;99.90
1888;DHT22;944;51.574;6.980;2023-05-18T23:51:23;10.40;99.90
1888;DHT22;944;51.574;6.980;2023-05-18T23:53:53;10.30;99.90
1888;DHT22;944;51.574;6.980;2023-05-18T23:56:21;10.30;99.90
1888;DHT22;944;51.574;6.980;2023-05-18T23:58:49;10.30;99.90
